createdAt,value
2018-09-09T00:00:10.582Z,2.90
2018-09-09T00:02:39.717Z,3.13
2018-09-09T00:05:08.767Z,2.60
2018-09-09T00:07:37.760Z,3.03
2018-09-09T00:10:07.194Z,2.90
2018-09-09T00:12:36.283Z,2.77
2018-09-09T00:15:05.349Z,3.10
2018-09-09T00:17:34.426Z,2.90
2018-09-09T00:20:03.458Z,2.80
2018-09-09T00:22:32.570Z,2.90
2018-09-09T00:25:01.610Z,3.10
2018-09-09T00:27:30.638Z,3.27
2018-09-09T00:29:59.746Z,3.17
2018-09-09T00:32:28.937Z,3.27
2018-09-09T00:34:58.048Z,3.17
2018-09-09T00:37:27.098Z,3.13
2018-09-09T00:39:56.317Z,3.07
2018-09-09T00:42:25.466Z,3.27
2018-09-09T00:44:54.489Z,3.00
2018-09-09T00:47:23.476Z,3.30
2018-09-09T00:49:57.955Z,3.17
2018-09-09T00:52:32.489Z,3.03
2018-09-09T00:55:01.573Z,3.20
2018-09-09T00:57:30.604Z,3.00
2018-09-09T00:59:59.658Z,3.00
2018-09-09T01:02:28.773Z,3.07
2018-09-09T01:04:57.785Z,3.30
2018-09-09T01:07:26.733Z,3.07
2018-09-09T01:09:55.833Z,3.00
2018-09-09T01:12:24.904Z,2.80
2018-09-09T01:14:53.910Z,2.87
2018-09-09T01:17:22.877Z,2.90
2018-09-09T01:19:51.848Z,2.87
2018-09-09T01:22:20.883Z,3.00
2018-09-09T01:24:49.881Z,3.23
2018-09-09T01:27:18.949Z,3.23
2018-09-09T01:29:47.981Z,3.00
2018-09-09T01:32:17.171Z,3.00
2018-09-09T01:34:46.576Z,3.47
2018-09-09T01:37:15.651Z,3.50
2018-09-09T01:39:44.665Z,3.17
2018-09-09T01:42:13.821Z,3.50
2018-09-09T01:44:42.820Z,3.47
2018-09-09T01:47:11.950Z,3.70
2018-09-09T01:49:40.942Z,3.60
2018-09-09T01:52:10.027Z,3.97
2018-09-09T01:54:39.046Z,3.63
2018-09-09T01:57:08.227Z,3.93
2018-09-09T01:59:37.338Z,3.73
2018-09-09T02:02:06.394Z,3.63
2018-09-09T02:04:35.511Z,3.23
2018-09-09T02:07:04.598Z,3.50
2018-09-09T02:09:33.653Z,3.60
2018-09-09T02:12:02.698Z,3.97
2018-09-09T02:14:31.811Z,3.90
2018-09-09T02:17:00.864Z,3.47
2018-09-09T02:19:29.822Z,3.90
2018-09-09T02:21:58.858Z,3.53
2018-09-09T02:24:28.294Z,3.60
2018-09-09T02:26:57.336Z,3.70
2018-09-09T02:29:26.316Z,3.70
2018-09-09T02:31:55.356Z,3.53
2018-09-09T02:34:24.479Z,3.63
2018-09-09T02:36:54.576Z,3.63
2018-09-09T02:39:23.670Z,4.03
2018-09-09T02:41:52.795Z,3.70
2018-09-09T02:44:21.846Z,4.03
2018-09-09T02:46:50.942Z,3.97
2018-09-09T02:49:19.916Z,3.90
2018-09-09T02:51:49.047Z,4.20
2018-09-09T02:54:18.222Z,3.80
2018-09-09T02:56:47.221Z,4.00
2018-09-09T02:59:16.216Z,4.23
2018-09-09T03:01:45.533Z,4.10
2018-09-09T03:04:14.537Z,3.90
2018-09-09T03:06:43.581Z,4.20
2018-09-09T03:09:12.625Z,3.80
2018-09-09T03:11:41.724Z,4.13
2018-09-09T03:14:10.869Z,4.23
2018-09-09T03:16:39.918Z,3.93
2018-09-09T03:19:08.996Z,3.73
2018-09-09T03:21:38.117Z,3.70
2018-09-09T03:24:07.161Z,4.07
2018-09-09T03:26:36.161Z,4.13
2018-09-09T03:29:05.197Z,4.03
2018-09-09T03:31:34.213Z,3.90
2018-09-09T03:34:03.277Z,3.70
2018-09-09T03:36:32.350Z,3.80
2018-09-09T03:39:01.449Z,3.70
2018-09-09T03:41:30.564Z,4.17
2018-09-09T03:43:59.643Z,3.83
2018-09-09T03:46:28.787Z,3.73
2018-09-09T03:48:57.814Z,3.93
2018-09-09T03:51:26.865Z,3.60
2018-09-09T03:53:56.001Z,3.50
2018-09-09T03:56:25.117Z,3.70
2018-09-09T03:58:54.217Z,4.20
2018-09-09T04:01:23.189Z,3.90
2018-09-09T04:03:52.345Z,3.80
2018-09-09T04:06:21.409Z,4.00
2018-09-09T04:08:50.516Z,4.50
2018-09-09T04:11:19.569Z,4.17
2018-09-09T04:13:48.681Z,3.80
2018-09-09T04:16:17.799Z,4.00
2018-09-09T04:18:46.751Z,4.03
2018-09-09T04:21:15.703Z,4.10
2018-09-09T04:23:44.788Z,4.23
2018-09-09T04:26:13.923Z,3.83
2018-09-09T04:28:42.947Z,3.90
2018-09-09T04:31:12.011Z,3.97
2018-09-09T04:33:41.073Z,4.50
2018-09-09T04:36:10.115Z,4.70
2018-09-09T04:38:39.417Z,4.60
2018-09-09T04:41:08.501Z,4.23
2018-09-09T04:43:37.525Z,4.23
2018-09-09T04:46:06.652Z,4.50
2018-09-09T04:48:35.696Z,4.07
2018-09-09T04:51:04.773Z,4.63
2018-09-09T04:53:33.781Z,4.50
2018-09-09T04:56:02.896Z,4.60
2018-09-09T04:58:31.989Z,4.57
2018-09-09T05:01:01.041Z,4.33
2018-09-09T05:03:30.063Z,4.30
2018-09-09T05:05:59.337Z,4.10
2018-09-09T05:08:28.347Z,4.57
2018-09-09T05:10:57.467Z,4.47
2018-09-09T05:13:26.553Z,4.57
2018-09-09T05:15:55.582Z,4.90
2018-09-09T05:18:24.639Z,4.37
2018-09-09T05:20:53.594Z,4.53
2018-09-09T05:23:22.616Z,4.40
2018-09-09T05:25:51.760Z,4.83
2018-09-09T05:28:21.009Z,4.23
2018-09-09T05:30:50.011Z,4.37
2018-09-09T05:33:18.990Z,4.17
2018-09-09T05:35:48.030Z,4.80
2018-09-09T05:38:17.112Z,4.87
2018-09-09T05:40:46.194Z,4.50
2018-09-09T05:43:15.250Z,4.50
2018-09-09T05:45:44.316Z,4.60
2018-09-09T05:48:13.378Z,4.20
2018-09-09T05:50:42.381Z,4.30
2018-09-09T05:53:11.484Z,4.17
2018-09-09T05:55:40.712Z,4.33
2018-09-09T05:58:09.770Z,4.33
2018-09-09T06:00:38.896Z,4.17
2018-09-09T06:03:07.995Z,3.93
2018-09-09T06:05:37.160Z,4.17
2018-09-09T06:08:06.210Z,3.90
2018-09-09T06:10:35.198Z,4.20
2018-09-09T06:13:04.205Z,4.07
2018-09-09T06:15:33.194Z,4.23
2018-09-09T06:18:02.239Z,4.10
2018-09-09T06:20:31.238Z,4.00
2018-09-09T06:23:00.328Z,4.23
2018-09-09T06:25:29.451Z,4.17
2018-09-09T06:27:59.523Z,4.60
2018-09-09T06:30:28.830Z,4.13
2018-09-09T06:32:57.923Z,3.47
2018-09-09T06:35:26.989Z,3.90
2018-09-09T06:37:56.002Z,4.10
2018-09-09T06:40:25.002Z,3.60
2018-09-09T06:42:54.136Z,3.87
2018-09-09T06:45:23.302Z,3.90
2018-09-09T06:47:52.393Z,3.40
2018-09-09T06:50:21.579Z,3.40
2018-09-09T06:52:50.777Z,3.40
2018-09-09T06:55:19.937Z,3.90
2018-09-09T06:57:49.315Z,3.43
2018-09-09T07:00:18.379Z,3.50
2018-09-09T07:02:47.359Z,3.50
2018-09-09T07:05:16.474Z,3.87
2018-09-09T07:07:45.563Z,3.43
2018-09-09T07:10:14.629Z,3.43
2018-09-09T07:12:43.681Z,3.43
2018-09-09T07:15:12.753Z,3.70
2018-09-09T07:17:41.847Z,3.80
2018-09-09T07:20:10.919Z,3.87
2018-09-09T07:22:39.963Z,3.50
2018-09-09T07:25:09.135Z,3.70
2018-09-09T07:27:38.233Z,3.93
2018-09-09T07:30:07.290Z,3.90
2018-09-09T07:32:36.320Z,3.80
2018-09-09T07:35:05.438Z,3.53
2018-09-09T07:37:34.510Z,4.10
2018-09-09T07:40:03.492Z,4.07
2018-09-09T07:42:32.701Z,3.63
2018-09-09T07:45:01.851Z,3.60
2018-09-09T07:47:31.065Z,3.63
2018-09-09T07:50:00.061Z,3.50
2018-09-09T07:52:29.018Z,3.67
2018-09-09T07:54:58.081Z,3.67
2018-09-09T07:57:27.253Z,3.40
2018-09-09T07:59:56.421Z,3.50
2018-09-09T08:02:25.461Z,4.00
2018-09-09T08:04:54.665Z,3.33
2018-09-09T08:07:23.781Z,3.07
2018-09-09T08:09:52.809Z,3.30
2018-09-09T08:12:21.801Z,3.40
2018-09-09T08:14:50.841Z,3.67
2018-09-09T08:17:19.917Z,3.97
2018-09-09T08:19:49.017Z,4.13
2018-09-09T08:22:18.333Z,4.10
2018-09-09T08:24:47.473Z,4.47
2018-09-09T08:27:16.501Z,4.20
2018-09-09T08:29:45.599Z,4.57
2018-09-09T08:32:14.589Z,4.30
2018-09-09T08:34:43.625Z,4.70
2018-09-09T08:37:12.725Z,4.90
2018-09-09T08:39:41.877Z,4.80
2018-09-09T08:42:10.876Z,4.43
2018-09-09T08:44:39.999Z,4.50
2018-09-09T08:47:09.287Z,4.43
2018-09-09T08:49:38.498Z,4.20
2018-09-09T08:52:07.506Z,4.03
2018-09-09T08:54:36.627Z,4.13
2018-09-09T08:57:05.433Z,4.20
2018-09-09T08:59:34.441Z,3.83
2018-09-09T09:02:03.634Z,4.00
2018-09-09T09:04:32.659Z,4.00
2018-09-09T09:07:01.739Z,4.00
2018-09-09T09:09:30.849Z,3.97
2018-09-09T09:12:02.503Z,4.00
2018-09-09T09:14:31.585Z,3.90
2018-09-09T09:17:00.644Z,3.77
2018-09-09T09:19:29.697Z,4.10
2018-09-09T09:21:58.677Z,4.07
2018-09-09T09:24:27.757Z,3.80
2018-09-09T09:26:56.852Z,4.17
2018-09-09T09:29:28.847Z,3.90
2018-09-09T09:31:58.060Z,3.70
2018-09-09T09:34:27.023Z,3.90
2018-09-09T09:36:56.288Z,4.13
2018-09-09T09:39:25.390Z,3.90
2018-09-09T09:41:54.410Z,4.27
2018-09-09T09:44:23.676Z,4.23
2018-09-09T09:46:52.692Z,3.73
2018-09-09T09:49:21.824Z,4.10
2018-09-09T09:51:50.804Z,3.80
2018-09-09T09:54:19.855Z,3.80
2018-09-09T09:56:49.595Z,3.97
2018-09-09T09:59:18.762Z,3.60
2018-09-09T10:01:47.760Z,3.73
2018-09-09T10:04:16.985Z,3.50
2018-09-09T10:06:46.080Z,3.80
2018-09-09T10:09:15.591Z,3.23
2018-09-09T10:11:44.868Z,3.30
2018-09-09T10:14:13.977Z,2.90
2018-09-09T10:16:42.976Z,2.70
2018-09-09T10:19:12.048Z,2.17
2018-09-09T10:21:41.026Z,2.60
2018-09-09T10:24:10.080Z,2.27
2018-09-09T10:26:39.260Z,2.20
2018-09-09T10:29:08.427Z,2.00
2018-09-09T10:31:37.508Z,2.20
2018-09-09T10:34:06.593Z,2.10
2018-09-09T10:36:35.739Z,2.20
2018-09-09T10:39:07.102Z,2.00
2018-09-09T10:41:36.376Z,2.17
2018-09-09T10:44:05.472Z,2.20
2018-09-09T10:46:34.727Z,2.00
2018-09-09T10:49:03.968Z,1.77
2018-09-09T10:51:33.097Z,1.73
2018-09-09T10:54:02.173Z,1.63
2018-09-09T10:56:31.285Z,1.90
2018-09-09T10:59:00.370Z,1.80
2018-09-09T11:01:29.457Z,1.50
2018-09-09T11:03:58.577Z,1.40
2018-09-09T11:06:28.198Z,1.50
2018-09-09T11:08:57.299Z,1.50
2018-09-09T11:11:26.377Z,1.67
2018-09-09T11:13:55.556Z,2.30
2018-09-09T11:16:24.701Z,1.60
2018-09-09T11:18:53.846Z,1.60
2018-09-09T11:21:22.917Z,1.60
2018-09-09T11:23:51.971Z,1.53
2018-09-09T11:26:21.135Z,1.50
2018-09-09T11:28:50.441Z,1.30
2018-09-09T11:31:19.493Z,1.40
2018-09-09T11:33:48.487Z,1.50
2018-09-09T11:36:17.624Z,1.53
2018-09-09T11:38:46.827Z,1.40
2018-09-09T11:41:15.941Z,1.60
2018-09-09T11:43:45.324Z,2.00
2018-09-09T11:46:14.449Z,1.63
2018-09-09T11:48:43.618Z,1.40
2018-09-09T11:51:12.737Z,1.40
2018-09-09T11:53:41.829Z,1.60
2018-09-09T11:56:10.913Z,1.73
2018-09-09T11:58:39.995Z,1.37
2018-09-09T12:01:09.121Z,1.50
2018-09-09T12:03:38.177Z,1.60
2018-09-09T12:06:07.386Z,1.40
2018-09-09T12:08:36.494Z,1.40
2018-09-09T12:11:06.039Z,1.30
2018-09-09T12:13:35.065Z,1.30
2018-09-09T12:16:04.124Z,1.47
2018-09-09T12:18:33.136Z,1.40
2018-09-09T12:21:02.366Z,1.60
2018-09-09T12:23:31.523Z,1.40
2018-09-09T12:26:00.542Z,1.50
2018-09-09T12:28:29.412Z,1.33
2018-09-09T12:30:58.234Z,1.30
2018-09-09T12:33:27.160Z,1.33
2018-09-09T12:35:55.813Z,1.27
2018-09-09T12:38:24.708Z,1.40
2018-09-09T12:40:53.524Z,1.40
2018-09-09T12:43:27.729Z,1.40
2018-09-09T12:46:01.866Z,1.40
2018-09-09T12:48:36.069Z,1.30
2018-09-09T12:51:04.857Z,1.40
2018-09-09T12:53:34.334Z,1.43
2018-09-09T12:56:03.090Z,1.30
2018-09-09T12:58:31.874Z,1.30
2018-09-09T13:01:00.804Z,1.33
2018-09-09T13:03:29.599Z,1.13
2018-09-09T13:05:58.471Z,1.30
2018-09-09T13:08:27.274Z,1.17
2018-09-09T13:10:55.989Z,1.20
2018-09-09T13:13:24.664Z,1.40
2018-09-09T13:15:53.430Z,1.50
2018-09-09T13:18:22.278Z,1.40
2018-09-09T13:20:50.974Z,1.40
2018-09-09T13:23:19.677Z,1.30
2018-09-09T13:25:48.548Z,1.27
2018-09-09T13:28:17.320Z,1.60
2018-09-09T13:30:46.140Z,1.23
2018-09-09T13:33:14.934Z,1.30
2018-09-09T13:35:43.700Z,1.20
2018-09-09T13:38:12.484Z,1.20
2018-09-09T13:40:41.218Z,1.50
2018-09-09T13:43:10.018Z,1.20
2018-09-09T13:45:38.850Z,1.20
2018-09-09T13:48:07.709Z,1.30
2018-09-09T13:50:36.446Z,1.50
2018-09-09T13:53:05.156Z,1.27
2018-09-09T13:55:33.954Z,1.40
2018-09-09T13:58:02.712Z,1.50
2018-09-09T14:00:31.548Z,1.20
2018-09-09T14:03:31.111Z,1.30
2018-09-09T14:06:00.016Z,1.30
2018-09-09T14:08:28.756Z,1.30
2018-09-09T14:10:57.498Z,1.20
2018-09-09T14:13:26.229Z,1.17
2018-09-09T14:15:54.939Z,1.20
2018-09-09T14:18:23.760Z,1.37
2018-09-09T14:20:52.655Z,1.23
2018-09-09T14:23:21.338Z,1.40
2018-09-09T14:25:50.090Z,1.30
2018-09-09T14:28:18.914Z,1.37
2018-09-09T14:30:47.707Z,1.50
2018-09-09T14:33:16.593Z,1.30
2018-09-09T14:35:45.394Z,1.20
2018-09-09T14:38:14.171Z,1.40
2018-09-09T14:40:43.266Z,1.30
2018-09-09T14:43:12.007Z,1.20
2018-09-09T14:45:40.813Z,1.33
2018-09-09T14:48:09.597Z,1.17
2018-09-09T14:50:38.313Z,1.37
2018-09-09T14:53:07.128Z,1.50
2018-09-09T14:55:35.836Z,1.40
2018-09-09T14:58:04.524Z,1.17
2018-09-09T15:00:33.371Z,1.20
2018-09-09T15:03:02.125Z,1.30
2018-09-09T15:05:30.885Z,1.30
2018-09-09T15:07:59.615Z,1.10
2018-09-09T15:10:28.287Z,1.30
2018-09-09T15:12:57.056Z,1.30
2018-09-09T15:15:25.915Z,1.10
2018-09-09T15:17:54.655Z,1.10
2018-09-09T15:20:23.477Z,1.30
2018-09-09T15:22:52.832Z,1.30
2018-09-09T15:25:21.684Z,1.40
2018-09-09T15:27:50.440Z,1.20
2018-09-09T15:30:19.249Z,1.30
2018-09-09T15:32:48.020Z,1.40
2018-09-09T15:35:16.798Z,1.40
2018-09-09T15:37:45.812Z,1.47
2018-09-09T15:40:15.236Z,1.10
2018-09-09T15:42:44.051Z,1.30
2018-09-09T15:45:12.996Z,1.30
2018-09-09T15:47:41.920Z,1.10
2018-09-09T15:50:10.642Z,1.53
2018-09-09T15:52:39.502Z,1.23
2018-09-09T15:55:08.209Z,1.27
2018-09-09T15:57:36.901Z,1.30
2018-09-09T16:00:05.688Z,1.20
2018-09-09T16:02:34.520Z,1.30
2018-09-09T16:05:03.287Z,1.30
2018-09-09T16:07:32.065Z,1.10
2018-09-09T16:10:00.892Z,1.20
2018-09-09T16:12:29.720Z,1.40
2018-09-09T16:14:58.397Z,1.57
2018-09-09T16:17:27.078Z,1.00
2018-09-09T16:19:56.695Z,1.50
2018-09-09T16:22:25.438Z,1.47
2018-09-09T16:24:54.672Z,1.40
2018-09-09T16:27:23.353Z,1.30
2018-09-09T16:29:52.043Z,1.40
2018-09-09T16:32:20.770Z,1.50
2018-09-09T16:34:49.508Z,1.50
2018-09-09T16:37:18.204Z,1.50
2018-09-09T16:39:47.114Z,1.50
2018-09-09T16:42:15.900Z,1.17
2018-09-09T16:44:44.637Z,1.40
2018-09-09T16:47:13.372Z,1.40
2018-09-09T16:49:42.082Z,1.23
2018-09-09T16:52:10.870Z,1.30
2018-09-09T16:54:39.591Z,1.33
2018-09-09T16:57:08.357Z,1.30
2018-09-09T16:59:37.130Z,1.70
2018-09-09T17:02:05.945Z,1.50
2018-09-09T17:04:34.850Z,1.20
2018-09-09T17:07:03.605Z,1.30
2018-09-09T17:09:32.260Z,1.20
2018-09-09T17:12:00.955Z,1.40
2018-09-09T17:14:29.756Z,1.40
2018-09-09T17:16:58.507Z,1.60
2018-09-09T17:19:27.372Z,1.40
2018-09-09T17:21:56.121Z,1.50
2018-09-09T17:24:24.841Z,1.43
2018-09-09T17:26:53.633Z,1.50
2018-09-09T17:29:22.385Z,1.50
2018-09-09T17:31:51.178Z,1.40
2018-09-09T17:34:19.995Z,1.30
2018-09-09T17:36:48.719Z,1.40
2018-09-09T17:39:17.914Z,1.30
2018-09-09T17:41:46.650Z,1.50
2018-09-09T17:44:15.429Z,1.70
2018-09-09T17:46:44.238Z,2.07
2018-09-09T17:49:13.035Z,1.93
2018-09-09T17:51:41.791Z,1.60
2018-09-09T17:54:10.505Z,1.60
2018-09-09T17:56:39.296Z,1.50
2018-09-09T17:59:08.012Z,1.60
2018-09-09T18:01:36.879Z,1.50
2018-09-09T18:04:05.924Z,1.60
2018-09-09T18:06:34.761Z,1.50
2018-09-09T18:09:04.571Z,1.50
2018-09-09T18:11:33.415Z,1.80
2018-09-09T18:14:02.249Z,1.80
2018-09-09T18:16:30.961Z,1.83
2018-09-09T18:18:59.620Z,1.83
2018-09-09T18:21:28.397Z,1.60
2018-09-09T18:23:57.203Z,1.90
2018-09-09T18:26:25.885Z,1.60
2018-09-09T18:28:54.721Z,1.47
2018-09-09T18:31:23.432Z,1.40
2018-09-09T18:33:52.477Z,1.57
2018-09-09T18:36:21.350Z,2.00
2018-09-09T18:38:50.157Z,1.70
2018-09-09T18:41:18.919Z,1.80
2018-09-09T18:43:47.969Z,1.80
2018-09-09T18:46:16.673Z,2.00
2018-09-09T18:48:45.441Z,2.10
2018-09-09T18:51:14.145Z,2.20
2018-09-09T18:53:42.976Z,2.07
2018-09-09T18:56:11.708Z,2.10
2018-09-09T18:58:40.395Z,1.90
2018-09-09T19:01:09.189Z,2.40
2018-09-09T19:03:38.145Z,2.60
2018-09-09T19:06:06.872Z,2.43
2018-09-09T19:08:35.679Z,2.53
2018-09-09T19:11:04.502Z,2.50
2018-09-09T19:13:33.257Z,2.33
2018-09-09T19:16:02.045Z,2.30
2018-09-09T19:18:30.961Z,2.10
2018-09-09T19:20:59.716Z,2.10
2018-09-09T19:23:29.021Z,2.40
2018-09-09T19:25:57.729Z,2.40
2018-09-09T19:28:26.844Z,2.27
2018-09-09T19:30:55.549Z,2.00
2018-09-09T19:33:24.282Z,2.03
2018-09-09T19:35:53.325Z,2.30
2018-09-09T19:38:22.084Z,2.70
2018-09-09T19:40:50.845Z,2.40
2018-09-09T19:43:19.554Z,2.87
2018-09-09T19:45:48.314Z,2.73
2018-09-09T19:48:17.137Z,2.23
2018-09-09T19:50:45.924Z,2.60
2018-09-09T19:53:14.584Z,2.60
2018-09-09T19:55:43.374Z,2.57
2018-09-09T19:58:12.199Z,2.80
2018-09-09T20:00:40.914Z,2.73
2018-09-09T20:03:09.664Z,2.70
2018-09-09T20:05:38.419Z,2.57
2018-09-09T20:08:07.192Z,2.70
2018-09-09T20:10:35.888Z,2.53
2018-09-09T20:13:04.588Z,2.57
2018-09-09T20:15:33.361Z,2.60
2018-09-09T20:18:02.146Z,2.70
2018-09-09T20:20:30.925Z,2.60
2018-09-09T20:27:46.987Z,2.30
2018-09-09T20:30:15.685Z,2.67
2018-09-09T20:32:44.429Z,2.30
2018-09-09T20:35:13.218Z,2.30
2018-09-09T20:37:42.052Z,2.27
2018-09-09T20:40:10.782Z,2.33
2018-09-09T20:42:39.496Z,2.40
2018-09-09T20:45:08.455Z,2.63
2018-09-09T20:47:37.146Z,2.20
2018-09-09T20:50:05.847Z,2.33
2018-09-09T20:52:34.579Z,2.23
2018-09-09T20:55:03.297Z,2.57
2018-09-09T20:57:32.021Z,2.33
2018-09-09T21:00:00.944Z,2.20
2018-09-09T21:02:29.683Z,2.17
2018-09-09T21:04:58.561Z,2.10
2018-09-09T21:07:27.415Z,2.27
2018-09-09T21:09:56.133Z,2.13
2018-09-09T21:12:24.815Z,2.30
2018-09-09T21:14:53.517Z,2.20
2018-09-09T21:17:22.256Z,2.23
2018-09-09T21:19:50.949Z,2.10
2018-09-09T21:22:19.681Z,2.17
2018-09-09T21:24:48.465Z,2.20
2018-09-09T21:27:17.169Z,2.00
2018-09-09T21:29:45.922Z,2.00
2018-09-09T21:32:14.629Z,2.27
2018-09-09T21:34:43.317Z,2.10
2018-09-09T21:37:12.117Z,1.97
2018-09-09T21:39:40.929Z,1.93
2018-09-09T21:42:09.676Z,2.00
2018-09-09T21:44:38.403Z,2.40
2018-09-09T21:47:07.209Z,2.17
2018-09-09T21:49:35.945Z,2.00
2018-09-09T21:52:04.622Z,2.00
2018-09-09T21:54:33.792Z,2.10
2018-09-09T21:57:03.192Z,2.30
2018-09-09T21:59:31.971Z,2.20
2018-09-09T22:02:02.030Z,2.10
2018-09-09T22:04:30.777Z,2.23
2018-09-09T22:06:59.940Z,2.40
2018-09-09T22:09:28.676Z,2.20
2018-09-09T22:11:57.401Z,2.03
2018-09-09T22:14:26.204Z,2.50
2018-09-09T22:16:54.968Z,1.80
2018-09-09T22:19:23.714Z,2.20
2018-09-09T22:21:52.430Z,2.40
2018-09-09T22:24:21.579Z,2.17
2018-09-09T22:26:50.259Z,1.93
2018-09-09T22:29:19.016Z,2.40
2018-09-09T22:31:47.790Z,2.23
2018-09-09T22:34:16.538Z,2.20
2018-09-09T22:36:45.293Z,2.40
2018-09-09T22:39:14.051Z,2.47
2018-09-09T22:41:42.806Z,2.30
2018-09-09T22:44:12.640Z,2.60
2018-09-09T22:46:42.055Z,2.43
2018-09-09T22:49:10.737Z,2.77
2018-09-09T22:51:39.595Z,2.20
2018-09-09T22:54:08.330Z,2.50
2018-09-09T22:56:37.072Z,2.37
2018-09-09T22:59:05.891Z,2.17
2018-09-09T23:01:34.650Z,2.70
2018-09-09T23:04:03.438Z,2.63
2018-09-09T23:06:32.210Z,2.47
2018-09-09T23:09:00.955Z,2.70
2018-09-09T23:11:29.697Z,2.30
2018-09-09T23:13:58.590Z,2.30
2018-09-09T23:16:27.339Z,2.50
2018-09-09T23:18:56.107Z,2.50
2018-09-09T23:21:24.786Z,2.80
2018-09-09T23:23:53.483Z,2.43
2018-09-09T23:26:22.327Z,2.80
2018-09-09T23:28:51.057Z,2.43
2018-09-09T23:31:19.833Z,2.60
2018-09-09T23:33:48.561Z,2.77
2018-09-09T23:36:17.355Z,2.50
2018-09-09T23:38:46.159Z,2.53
2018-09-09T23:41:14.877Z,2.67
2018-09-09T23:43:43.741Z,2.40
2018-09-09T23:46:12.635Z,2.57
2018-09-09T23:48:41.385Z,2.63
2018-09-09T23:51:10.211Z,2.90
2018-09-09T23:53:38.921Z,2.40
2018-09-09T23:56:07.690Z,2.60
2018-09-09T23:58:36.443Z,2.63
